createdAt,value
2018-09-23T00:00:47.844Z,1012.02
2018-09-23T00:01:47.886Z,1011.99
2018-09-23T00:02:47.828Z,1011.99
2018-09-23T00:03:47.880Z,1012.01
2018-09-23T00:04:47.866Z,1012.07
2018-09-23T00:05:47.903Z,1012.06
2018-09-23T00:06:47.903Z,1012.12
2018-09-23T00:07:47.921Z,1012.09
2018-09-23T00:08:47.908Z,1012.05
2018-09-23T00:09:47.958Z,1012.07
2018-09-23T00:10:47.915Z,1012.05
2018-09-23T00:11:47.920Z,1012.00
2018-09-23T00:12:47.926Z,1012.00
2018-09-23T00:13:47.934Z,1012.04
2018-09-23T00:14:47.942Z,1012.05
2018-09-23T00:15:47.960Z,1012.01
2018-09-23T00:16:48.014Z,1012.08
2018-09-23T00:17:47.968Z,1012.05
2018-09-23T00:18:47.964Z,1012.04
2018-09-23T00:19:47.999Z,1012.08
2018-09-23T00:20:48.044Z,1012.08
2018-09-23T00:21:48.010Z,1012.07
2018-09-23T00:22:48.025Z,1012.08
2018-09-23T00:23:48.059Z,1012.04
2018-09-23T00:24:48.084Z,1012.02
2018-09-23T00:25:48.184Z,1012.03
2018-09-23T00:26:48.034Z,1012.05
2018-09-23T00:27:48.055Z,1012.02
2018-09-23T00:28:48.399Z,1012.00
2018-09-23T00:29:48.068Z,1011.96
2018-09-23T00:30:48.126Z,1012.02
2018-09-23T00:31:48.124Z,1011.96
2018-09-23T00:32:48.122Z,1011.98
2018-09-23T00:33:48.140Z,1011.99
2018-09-23T00:34:48.156Z,1011.94
2018-09-23T00:35:48.125Z,1011.94
2018-09-23T00:36:48.158Z,1011.92
2018-09-23T00:37:48.156Z,1011.89
2018-09-23T00:38:48.167Z,1011.93
2018-09-23T00:39:48.222Z,1011.92
2018-09-23T00:40:48.173Z,1011.84
2018-09-23T00:41:48.246Z,1011.86
2018-09-23T00:42:48.238Z,1011.88
2018-09-23T00:43:48.218Z,1011.84
2018-09-23T00:44:48.212Z,1011.83
2018-09-23T00:45:48.212Z,1011.81
2018-09-23T00:46:48.245Z,1011.83
2018-09-23T00:47:48.255Z,1011.80
2018-09-23T00:48:48.286Z,1011.82
2018-09-23T00:49:48.237Z,1011.86
2018-09-23T00:50:48.298Z,1011.88
2018-09-23T00:51:48.266Z,1011.89
2018-09-23T00:52:48.306Z,1011.92
2018-09-23T00:53:48.330Z,1011.89
2018-09-23T00:54:48.289Z,1011.86
2018-09-23T00:55:48.301Z,1011.85
2018-09-23T00:56:48.340Z,1011.90
2018-09-23T00:57:48.356Z,1011.89
2018-09-23T00:58:48.342Z,1011.89
2018-09-23T00:59:48.361Z,1011.89
2018-09-23T01:00:48.345Z,1011.80
2018-09-23T01:01:48.385Z,1011.89
2018-09-23T01:02:48.367Z,1011.84
2018-09-23T01:03:48.374Z,1011.83
2018-09-23T01:04:48.434Z,1011.80
2018-09-23T01:05:48.404Z,1011.79
2018-09-23T01:06:48.456Z,1011.77
2018-09-23T01:07:48.395Z,1011.75
2018-09-23T01:08:48.414Z,1011.78
2018-09-23T01:09:48.426Z,1011.81
2018-09-23T01:10:48.431Z,1011.80
2018-09-23T01:11:48.466Z,1011.75
2018-09-23T01:12:48.479Z,1011.80
2018-09-23T01:13:48.463Z,1011.79
2018-09-23T01:14:48.494Z,1011.76
2018-09-23T01:15:48.463Z,1011.75
2018-09-23T01:16:48.522Z,1011.73
2018-09-23T01:17:48.541Z,1011.75
2018-09-23T01:18:48.494Z,1011.72
2018-09-23T01:19:48.504Z,1011.69
2018-09-23T01:20:48.508Z,1011.69
2018-09-23T01:21:48.514Z,1011.64
2018-09-23T01:22:48.562Z,1011.68
2018-09-23T01:23:48.559Z,1011.62
2018-09-23T01:24:48.574Z,1011.61
2018-09-23T01:25:48.599Z,1011.62
2018-09-23T01:26:48.565Z,1011.66
2018-09-23T01:27:48.566Z,1011.61
2018-09-23T01:28:48.600Z,1011.63
2018-09-23T01:29:48.588Z,1011.63
2018-09-23T01:30:48.595Z,1011.64
2018-09-23T01:31:48.622Z,1011.63
2018-09-23T01:32:48.605Z,1011.69
2018-09-23T01:33:48.665Z,1011.65
2018-09-23T01:34:48.640Z,1011.69
2018-09-23T01:35:48.643Z,1011.68
2018-09-23T01:36:48.659Z,1011.70
2018-09-23T01:37:48.665Z,1011.67
2018-09-23T01:38:48.659Z,1011.65
2018-09-23T01:39:48.721Z,1011.65
2018-09-23T01:40:48.724Z,1011.62
2018-09-23T01:41:48.688Z,1011.59
2018-09-23T01:42:48.734Z,1011.57
2018-09-23T01:43:48.736Z,1011.54
2018-09-23T01:44:48.716Z,1011.48
2018-09-23T01:45:48.720Z,1011.52
2018-09-23T01:46:48.781Z,1011.51
2018-09-23T01:47:48.753Z,1011.43
2018-09-23T01:48:48.775Z,1011.42
2018-09-23T01:49:48.792Z,1011.39
2018-09-23T01:50:48.797Z,1011.41
2018-09-23T01:51:48.775Z,1011.41
2018-09-23T01:52:48.796Z,1011.42
2018-09-23T01:53:48.812Z,1011.42
2018-09-23T01:54:48.824Z,1011.48
2018-09-23T01:55:48.826Z,1011.38
2018-09-23T01:56:48.832Z,1011.43
2018-09-23T01:57:48.859Z,1011.42
2018-09-23T01:58:48.851Z,1011.43
2018-09-23T01:59:48.852Z,1011.42
2018-09-23T02:00:48.875Z,1011.41
2018-09-23T02:01:48.881Z,1011.46
2018-09-23T02:02:48.876Z,1011.46
2018-09-23T02:03:48.886Z,1011.48
2018-09-23T02:04:48.936Z,1011.51
2018-09-23T02:05:48.957Z,1011.54
2018-09-23T02:06:48.908Z,1011.51
2018-09-23T02:07:48.913Z,1011.53
2018-09-23T02:08:48.914Z,1011.51
2018-09-23T02:09:48.917Z,1011.53
2018-09-23T02:10:48.996Z,1011.49
2018-09-23T02:11:48.993Z,1011.46
2018-09-23T02:12:48.975Z,1011.46
2018-09-23T02:13:48.957Z,1011.41
2018-09-23T02:14:48.961Z,1011.42
2018-09-23T02:15:49.002Z,1011.43
2018-09-23T02:16:49.005Z,1011.45
2018-09-23T02:17:48.974Z,1011.43
2018-09-23T02:18:48.979Z,1011.39
2018-09-23T02:19:49.060Z,1011.44
2018-09-23T02:20:49.030Z,1011.41
2018-09-23T02:21:49.049Z,1011.45
2018-09-23T02:22:49.108Z,1011.42
2018-09-23T02:23:49.070Z,1011.36
2018-09-23T02:24:49.065Z,1011.38
2018-09-23T02:25:49.065Z,1011.38
2018-09-23T02:26:49.071Z,1011.34
2018-09-23T02:27:49.078Z,1011.30
2018-09-23T02:28:49.101Z,1011.31
2018-09-23T02:29:49.094Z,1011.34
2018-09-23T02:30:49.099Z,1011.36
2018-09-23T02:31:49.104Z,1011.31
2018-09-23T02:32:49.102Z,1011.29
2018-09-23T02:33:49.156Z,1011.27
2018-09-23T02:34:49.157Z,1011.27
2018-09-23T02:35:49.133Z,1011.30
2018-09-23T02:36:49.170Z,1011.29
2018-09-23T02:37:49.164Z,1011.27
2018-09-23T02:38:49.229Z,1011.23
2018-09-23T02:39:49.207Z,1011.19
2018-09-23T02:40:49.212Z,1011.21
2018-09-23T02:41:49.180Z,1011.26
2018-09-23T02:42:49.179Z,1011.27
2018-09-23T02:43:49.301Z,1011.28
2018-09-23T02:44:49.208Z,1011.25
2018-09-23T02:45:49.241Z,1011.22
2018-09-23T02:46:49.242Z,1011.25
2018-09-23T02:47:49.233Z,1011.17
2018-09-23T02:48:49.246Z,1011.17
2018-09-23T02:49:49.297Z,1011.16
2018-09-23T02:50:49.265Z,1011.12
2018-09-23T02:51:49.290Z,1011.10
2018-09-23T02:52:49.265Z,1011.11
2018-09-23T02:53:49.280Z,1011.05
2018-09-23T02:54:49.373Z,1011.05
2018-09-23T02:55:49.291Z,1011.09
2018-09-23T02:56:49.320Z,1011.12
2018-09-23T02:57:49.325Z,1011.15
2018-09-23T02:58:49.376Z,1011.16
2018-09-23T02:59:49.355Z,1011.17
2018-09-23T03:00:49.359Z,1011.15
2018-09-23T03:01:49.359Z,1011.09
2018-09-23T03:02:49.358Z,1011.08
2018-09-23T03:03:49.377Z,1011.08
2018-09-23T03:04:49.386Z,1011.05
2018-09-23T03:05:49.435Z,1011.04
2018-09-23T03:06:49.378Z,1011.03
2018-09-23T03:07:49.395Z,1011.04
2018-09-23T03:08:49.423Z,1011.09
2018-09-23T03:09:49.473Z,1011.07
2018-09-23T03:10:49.421Z,1011.02
2018-09-23T03:11:49.420Z,1011.03
2018-09-23T03:12:49.450Z,1010.97
2018-09-23T03:13:49.455Z,1010.99
2018-09-23T03:14:49.441Z,1011.00
2018-09-23T03:15:49.459Z,1011.04
2018-09-23T03:16:49.522Z,1011.01
2018-09-23T03:17:49.507Z,1011.02
2018-09-23T03:18:49.474Z,1010.97
2018-09-23T03:19:49.539Z,1011.01
2018-09-23T03:20:49.497Z,1010.95
2018-09-23T03:21:49.514Z,1010.97
2018-09-23T03:22:49.497Z,1010.91
2018-09-23T03:23:49.558Z,1010.94
2018-09-23T03:24:49.524Z,1010.97
2018-09-23T03:25:50.550Z,1010.95
2018-09-23T03:26:49.558Z,1010.97
2018-09-23T03:27:49.577Z,1010.97
2018-09-23T03:28:49.602Z,1010.99
2018-09-23T03:29:49.578Z,1011.06
2018-09-23T03:30:49.577Z,1011.05
2018-09-23T03:31:49.626Z,1011.04
2018-09-23T03:32:49.619Z,1011.01
2018-09-23T03:33:49.641Z,1010.99
2018-09-23T03:34:49.639Z,1011.03
2018-09-23T03:35:49.674Z,1011.06
2018-09-23T03:36:49.632Z,1011.06
2018-09-23T03:37:49.654Z,1011.08
2018-09-23T03:38:49.687Z,1011.13
2018-09-23T03:39:49.678Z,1011.07
2018-09-23T03:40:49.688Z,1011.04
2018-09-23T03:41:49.675Z,1010.96
2018-09-23T03:42:49.691Z,1010.98
2018-09-23T03:43:49.693Z,1010.93
2018-09-23T03:44:49.695Z,1010.98
2018-09-23T03:45:49.754Z,1010.94
2018-09-23T03:46:49.734Z,1010.96
2018-09-23T03:47:49.741Z,1010.93
2018-09-23T03:48:49.732Z,1010.90
2018-09-23T03:49:49.737Z,1010.89
2018-09-23T03:50:49.745Z,1010.86
2018-09-23T03:51:49.765Z,1010.85
2018-09-23T03:52:49.777Z,1010.81
2018-09-23T03:53:49.765Z,1010.80
2018-09-23T03:54:49.765Z,1010.82
2018-09-23T03:55:49.821Z,1010.85
2018-09-23T03:56:49.778Z,1010.87
2018-09-23T03:57:49.832Z,1010.87
2018-09-23T03:58:49.807Z,1010.89
2018-09-23T03:59:49.840Z,1010.92
2018-09-23T04:00:49.814Z,1010.90
2018-09-23T04:01:49.814Z,1010.89
2018-09-23T04:02:49.877Z,1010.78
2018-09-23T04:03:49.845Z,1010.78
2018-09-23T04:04:49.892Z,1010.74
2018-09-23T04:05:49.835Z,1010.74
2018-09-23T04:06:49.897Z,1010.79
2018-09-23T04:07:49.888Z,1010.79
2018-09-23T04:08:49.879Z,1010.77
2018-09-23T04:09:49.920Z,1010.77
2018-09-23T04:10:49.944Z,1010.79
2018-09-23T04:11:49.914Z,1010.78
2018-09-23T04:12:49.929Z,1010.78
2018-09-23T04:13:49.915Z,1010.80
2018-09-23T04:14:49.930Z,1010.82
2018-09-23T04:15:49.924Z,1010.83
2018-09-23T04:16:49.960Z,1010.85
2018-09-23T04:17:49.963Z,1010.84
2018-09-23T04:18:49.983Z,1010.85
2018-09-23T04:19:49.976Z,1010.83
2018-09-23T04:20:49.977Z,1010.81
2018-09-23T04:21:50.043Z,1010.81
2018-09-23T04:22:50.006Z,1010.81
2018-09-23T04:23:50.073Z,1010.79
2018-09-23T04:24:50.013Z,1010.82
2018-09-23T04:25:50.029Z,1010.77
2018-09-23T04:26:50.024Z,1010.85
2018-09-23T04:27:50.057Z,1010.82
2018-09-23T04:28:50.033Z,1010.80
2018-09-23T04:29:50.061Z,1010.78
2018-09-23T04:30:50.055Z,1010.76
2018-09-23T04:31:50.118Z,1010.77
2018-09-23T04:32:50.085Z,1010.78
2018-09-23T04:33:50.117Z,1010.83
2018-09-23T04:34:50.082Z,1010.81
2018-09-23T04:35:50.103Z,1010.79
2018-09-23T04:36:50.105Z,1010.80
2018-09-23T04:37:50.111Z,1010.85
2018-09-23T04:38:50.163Z,1010.81
2018-09-23T04:39:50.178Z,1010.85
2018-09-23T04:40:50.134Z,1010.83
2018-09-23T04:41:50.160Z,1010.80
2018-09-23T04:42:50.173Z,1010.80
2018-09-23T04:43:50.182Z,1010.72
2018-09-23T04:44:50.214Z,1010.74
2018-09-23T04:45:50.153Z,1010.68
2018-09-23T04:46:50.211Z,1010.69
2018-09-23T04:47:50.171Z,1010.68
2018-09-23T04:48:50.229Z,1010.69
2018-09-23T04:49:50.228Z,1010.69
2018-09-23T04:50:50.227Z,1010.69
2018-09-23T04:51:50.256Z,1010.75
2018-09-23T04:52:50.235Z,1010.72
2018-09-23T04:53:50.244Z,1010.75
2018-09-23T04:54:50.251Z,1010.72
2018-09-23T04:55:50.258Z,1010.75
2018-09-23T04:56:50.284Z,1010.73
2018-09-23T04:57:50.270Z,1010.72
2018-09-23T04:58:50.289Z,1010.67
2018-09-23T04:59:50.283Z,1010.67
2018-09-23T05:00:50.313Z,1010.68
2018-09-23T05:01:50.337Z,1010.70
2018-09-23T05:02:50.304Z,1010.64
2018-09-23T05:03:50.324Z,1010.67
2018-09-23T05:04:50.362Z,1010.65
2018-09-23T05:05:50.355Z,1010.64
2018-09-23T05:06:50.342Z,1010.63
2018-09-23T05:07:50.342Z,1010.63
2018-09-23T05:08:50.563Z,1010.65
2018-09-23T05:09:50.368Z,1010.66
2018-09-23T05:10:50.384Z,1010.65
2018-09-23T05:11:50.389Z,1010.63
2018-09-23T05:12:50.487Z,1010.62
2018-09-23T05:13:50.488Z,1010.57
2018-09-23T05:14:50.510Z,1010.64
2018-09-23T05:15:50.439Z,1010.63
2018-09-23T05:16:50.427Z,1010.66
2018-09-23T05:17:50.429Z,1010.61
2018-09-23T05:18:50.491Z,1010.61
2018-09-23T05:19:50.456Z,1010.54
2018-09-23T05:20:50.454Z,1010.56
2018-09-23T05:21:50.490Z,1010.54
2018-09-23T05:22:50.497Z,1010.54
2018-09-23T05:23:50.565Z,1010.52
2018-09-23T05:24:50.524Z,1010.52
2018-09-23T05:25:50.507Z,1010.49
2018-09-23T05:26:50.526Z,1010.48
2018-09-23T05:27:50.524Z,1010.47
2018-09-23T05:28:50.534Z,1010.45
2018-09-23T05:29:50.558Z,1010.42
2018-09-23T05:30:50.592Z,1010.38
2018-09-23T05:31:50.549Z,1010.36
2018-09-23T05:32:50.564Z,1010.34
2018-09-23T05:33:50.596Z,1010.33
2018-09-23T05:34:50.557Z,1010.37
2018-09-23T05:35:50.591Z,1010.33
2018-09-23T05:36:50.612Z,1010.33
2018-09-23T05:37:50.600Z,1010.33
2018-09-23T05:38:50.600Z,1010.33
2018-09-23T05:39:50.611Z,1010.35
2018-09-23T05:40:50.649Z,1010.39
2018-09-23T05:41:50.631Z,1010.38
2018-09-23T05:42:50.632Z,1010.43
2018-09-23T05:43:50.703Z,1010.37
2018-09-23T05:44:50.653Z,1010.39
2018-09-23T05:45:50.680Z,1010.35
2018-09-23T05:46:50.660Z,1010.34
2018-09-23T05:47:50.681Z,1010.35
2018-09-23T05:48:50.678Z,1010.33
2018-09-23T05:49:50.734Z,1010.35
2018-09-23T05:50:50.726Z,1010.34
2018-09-23T05:51:50.729Z,1010.32
2018-09-23T05:52:50.705Z,1010.29
2018-09-23T05:53:50.715Z,1010.28
2018-09-23T05:54:51.056Z,1010.24
2018-09-23T05:55:50.866Z,1010.24
2018-09-23T05:56:50.749Z,1010.21
2018-09-23T05:57:50.801Z,1010.27
2018-09-23T05:58:50.890Z,1010.30
2018-09-23T05:59:50.798Z,1010.28
2018-09-23T06:00:50.824Z,1010.23
2018-09-23T06:01:50.799Z,1010.27
2018-09-23T06:02:50.988Z,1010.26
2018-09-23T06:03:50.807Z,1010.22
2018-09-23T06:04:50.888Z,1010.21
2018-09-23T06:05:50.872Z,1010.20
2018-09-23T06:06:50.839Z,1010.18
2018-09-23T06:07:50.858Z,1010.15
2018-09-23T06:08:50.917Z,1010.13
2018-09-23T06:09:50.875Z,1010.16
2018-09-23T06:10:50.885Z,1010.21
2018-09-23T06:11:50.926Z,1010.24
2018-09-23T06:12:50.874Z,1010.20
2018-09-23T06:13:51.017Z,1010.22
2018-09-23T06:14:50.897Z,1010.25
2018-09-23T06:15:50.945Z,1010.26
2018-09-23T06:16:50.917Z,1010.27
2018-09-23T06:17:50.961Z,1010.25
2018-09-23T06:18:51.175Z,1010.27
2018-09-23T06:19:50.933Z,1010.28
2018-09-23T06:20:50.966Z,1010.24
2018-09-23T06:21:50.988Z,1010.25
2018-09-23T06:22:51.016Z,1010.24
2018-09-23T06:23:51.074Z,1010.23
2018-09-23T06:24:51.000Z,1010.23
2018-09-23T06:25:51.105Z,1010.34
2018-09-23T06:26:51.014Z,1010.30
2018-09-23T06:27:51.032Z,1010.38
2018-09-23T06:28:51.027Z,1010.32
2018-09-23T06:29:51.041Z,1010.32
2018-09-23T06:30:51.051Z,1010.31
2018-09-23T06:31:51.094Z,1010.26
2018-09-23T06:32:51.059Z,1010.27
2018-09-23T06:33:51.144Z,1010.22
2018-09-23T06:34:51.111Z,1010.23
2018-09-23T06:35:51.122Z,1010.19
2018-09-23T06:36:51.095Z,1010.19
2018-09-23T06:37:51.088Z,1010.19
2018-09-23T06:38:51.211Z,1010.20
2018-09-23T06:39:51.156Z,1010.20
2018-09-23T06:40:51.119Z,1010.25
2018-09-23T06:41:51.147Z,1010.29
2018-09-23T06:42:51.134Z,1010.37
2018-09-23T06:43:51.209Z,1010.41
2018-09-23T06:44:51.197Z,1010.41
2018-09-23T06:45:51.233Z,1010.51
2018-09-23T06:46:51.194Z,1010.59
2018-09-23T06:47:51.215Z,1010.62
2018-09-23T06:48:51.216Z,1010.61
2018-09-23T06:49:51.254Z,1010.55
2018-09-23T06:50:51.245Z,1010.56
2018-09-23T06:51:51.242Z,1010.50
2018-09-23T06:52:51.259Z,1010.44
2018-09-23T06:53:51.236Z,1010.40
2018-09-23T06:54:51.264Z,1010.38
2018-09-23T06:55:51.325Z,1010.38
2018-09-23T06:56:51.325Z,1010.34
2018-09-23T06:57:51.309Z,1010.35
2018-09-23T06:58:51.300Z,1010.33
2018-09-23T06:59:51.303Z,1010.31
2018-09-23T07:00:51.321Z,1010.28
2018-09-23T07:01:51.346Z,1010.30
2018-09-23T07:02:51.344Z,1010.38
2018-09-23T07:03:51.369Z,1010.41
2018-09-23T07:04:51.379Z,1010.46
2018-09-23T07:05:51.366Z,1010.48
2018-09-23T07:06:51.361Z,1010.46
2018-09-23T07:07:51.390Z,1010.47
2018-09-23T07:08:51.406Z,1010.46
2018-09-23T07:09:51.423Z,1010.44
2018-09-23T07:10:51.461Z,1010.41
2018-09-23T07:11:51.424Z,1010.42
2018-09-23T07:12:51.512Z,1010.41
2018-09-23T07:13:51.440Z,1010.35
2018-09-23T07:14:51.457Z,1010.34
2018-09-23T07:15:51.480Z,1010.33
2018-09-23T07:16:51.464Z,1010.34
2018-09-23T07:17:51.507Z,1010.34
2018-09-23T07:18:51.531Z,1010.35
2018-09-23T07:19:51.547Z,1010.33
2018-09-23T07:20:51.540Z,1010.30
2018-09-23T07:21:51.549Z,1010.27
2018-09-23T07:22:51.574Z,1010.30
2018-09-23T07:23:51.690Z,1010.28
2018-09-23T07:24:51.543Z,1010.26
2018-09-23T07:25:51.531Z,1010.19
2018-09-23T07:26:51.616Z,1010.23
2018-09-23T07:27:51.681Z,1010.26
2018-09-23T07:28:51.582Z,1010.30
2018-09-23T07:29:51.624Z,1010.35
2018-09-23T07:30:51.644Z,1010.39
2018-09-23T07:31:51.816Z,1010.41
2018-09-23T07:32:51.622Z,1010.35
2018-09-23T07:33:51.661Z,1010.41
2018-09-23T07:34:51.650Z,1010.40
2018-09-23T07:35:51.639Z,1010.35
2018-09-23T07:36:51.715Z,1010.31
2018-09-23T07:37:51.734Z,1010.33
2018-09-23T07:38:51.682Z,1010.32
2018-09-23T07:39:51.804Z,1010.40
2018-09-23T07:40:51.700Z,1010.42
2018-09-23T07:41:51.735Z,1010.40
2018-09-23T07:42:51.712Z,1010.40
2018-09-23T07:43:51.751Z,1010.44
2018-09-23T07:44:51.736Z,1010.40
2018-09-23T07:45:51.751Z,1010.48
2018-09-23T07:46:51.742Z,1010.45
2018-09-23T07:47:51.760Z,1010.48
2018-09-23T07:48:51.821Z,1010.47
2018-09-23T07:49:51.782Z,1010.46
2018-09-23T07:50:51.783Z,1010.49
2018-09-23T07:51:51.810Z,1010.52
2018-09-23T07:52:51.815Z,1010.49
2018-09-23T07:53:51.835Z,1010.49
2018-09-23T07:54:51.875Z,1010.48
2018-09-23T07:55:51.891Z,1010.48
2018-09-23T07:56:51.881Z,1010.48
2018-09-23T07:57:51.866Z,1010.47
2018-09-23T07:58:51.881Z,1010.45
2018-09-23T07:59:51.933Z,1010.35
2018-09-23T08:00:51.885Z,1010.35
2018-09-23T08:01:51.938Z,1010.30
2018-09-23T08:02:52.461Z,1010.31
2018-09-23T08:03:51.905Z,1010.31
2018-09-23T08:04:51.927Z,1010.27
2018-09-23T08:05:51.973Z,1010.37
2018-09-23T08:06:52.029Z,1010.34
2018-09-23T08:07:51.958Z,1010.33
2018-09-23T08:08:51.953Z,1010.33
2018-09-23T08:09:51.968Z,1010.26
2018-09-23T08:10:52.184Z,1010.24
2018-09-23T08:11:52.008Z,1010.24
2018-09-23T08:12:52.213Z,1010.20
2018-09-23T08:13:52.271Z,1010.22
2018-09-23T08:14:52.488Z,1010.21
2018-09-23T08:15:52.033Z,1010.19
2018-09-23T08:16:52.060Z,1010.18
2018-09-23T08:17:52.159Z,1010.14
2018-09-23T08:18:52.051Z,1010.09
2018-09-23T08:19:52.225Z,1010.05
2018-09-23T08:20:52.094Z,1010.04
2018-09-23T08:21:52.148Z,1010.04
2018-09-23T08:22:52.128Z,1010.02
2018-09-23T08:23:52.303Z,1010.00
2018-09-23T08:24:52.210Z,1009.96
2018-09-23T08:25:52.140Z,1009.97
2018-09-23T08:26:52.235Z,1009.98
2018-09-23T08:27:52.167Z,1010.04
2018-09-23T08:28:52.241Z,1010.08
2018-09-23T08:29:52.152Z,1010.05
2018-09-23T08:30:52.169Z,1010.03
2018-09-23T08:31:52.238Z,1009.99
2018-09-23T08:32:52.253Z,1010.03
2018-09-23T08:33:52.244Z,1010.00
2018-09-23T08:34:52.277Z,1009.95
2018-09-23T08:35:52.401Z,1009.93
2018-09-23T08:36:52.241Z,1009.89
2018-09-23T08:37:52.256Z,1009.86
2018-09-23T08:38:52.249Z,1009.87
2018-09-23T08:39:52.338Z,1009.85
2018-09-23T08:40:52.495Z,1009.83
2018-09-23T08:41:52.314Z,1009.80
2018-09-23T08:42:52.670Z,1009.82
2018-09-23T08:43:52.314Z,1009.82
2018-09-23T08:44:52.305Z,1009.83
2018-09-23T08:45:52.346Z,1009.87
2018-09-23T08:46:52.461Z,1009.89
2018-09-23T08:47:52.603Z,1009.90
2018-09-23T08:48:52.390Z,1009.88
2018-09-23T08:49:52.478Z,1009.87
2018-09-23T08:50:52.422Z,1009.83
2018-09-23T08:51:52.457Z,1009.82
2018-09-23T08:52:52.514Z,1009.81
2018-09-23T08:53:52.496Z,1009.74
2018-09-23T08:54:52.532Z,1009.72
2018-09-23T08:55:52.490Z,1009.74
2018-09-23T08:56:52.473Z,1009.77
2018-09-23T08:57:52.542Z,1009.78
2018-09-23T08:58:52.495Z,1009.77
2018-09-23T08:59:52.514Z,1009.75
2018-09-23T09:00:52.523Z,1009.76
2018-09-23T09:01:52.515Z,1009.74
2018-09-23T09:02:52.541Z,1009.77
2018-09-23T09:03:52.570Z,1009.79
2018-09-23T09:04:52.591Z,1009.82
2018-09-23T09:05:52.539Z,1009.82
2018-09-23T09:06:52.799Z,1009.85
2018-09-23T09:07:52.597Z,1009.85
2018-09-23T09:08:52.593Z,1009.84
2018-09-23T09:09:52.595Z,1009.82
2018-09-23T09:10:52.588Z,1009.76
2018-09-23T09:11:52.699Z,1009.75
2018-09-23T09:12:52.654Z,1009.72
2018-09-23T09:13:52.627Z,1009.69
2018-09-23T09:14:52.653Z,1009.68
2018-09-23T09:15:52.713Z,1009.63
2018-09-23T09:16:52.660Z,1009.60
2018-09-23T09:17:52.702Z,1009.55
2018-09-23T09:18:52.969Z,1009.54
2018-09-23T09:19:52.694Z,1009.47
2018-09-23T09:20:52.696Z,1009.44
2018-09-23T09:21:52.755Z,1009.46
2018-09-23T09:22:52.703Z,1009.42
2018-09-23T09:23:52.745Z,1009.43
2018-09-23T09:24:52.830Z,1009.47
2018-09-23T09:25:52.790Z,1009.43
2018-09-23T09:26:52.805Z,1009.44
2018-09-23T09:27:52.780Z,1009.42
2018-09-23T09:28:52.810Z,1009.45
2018-09-23T09:29:52.842Z,1009.47
2018-09-23T09:30:52.966Z,1009.49
2018-09-23T09:31:52.816Z,1009.43
2018-09-23T09:32:52.825Z,1009.44
2018-09-23T09:33:52.844Z,1009.44
2018-09-23T09:34:52.885Z,1009.38
2018-09-23T09:35:53.124Z,1009.37
2018-09-23T09:36:52.888Z,1009.30
2018-09-23T09:37:53.082Z,1009.31
2018-09-23T09:38:52.885Z,1009.30
2018-09-23T09:39:52.917Z,1009.31
2018-09-23T09:40:52.911Z,1009.33
2018-09-23T09:41:52.957Z,1009.35
2018-09-23T09:42:52.967Z,1009.36
2018-09-23T09:43:52.956Z,1009.33
2018-09-23T09:44:52.988Z,1009.35
2018-09-23T09:45:52.949Z,1009.39
2018-09-23T09:46:52.966Z,1009.41
2018-09-23T09:47:52.986Z,1009.44
2018-09-23T09:48:53.005Z,1009.47
2018-09-23T09:49:53.047Z,1009.46
2018-09-23T09:50:53.232Z,1009.47
2018-09-23T09:51:53.026Z,1009.49
2018-09-23T09:52:53.056Z,1009.46
2018-09-23T09:53:53.082Z,1009.49
2018-09-23T09:54:53.070Z,1009.43
2018-09-23T09:55:53.142Z,1009.47
2018-09-23T09:56:53.092Z,1009.46
2018-09-23T09:57:53.143Z,1009.48
2018-09-23T09:58:53.148Z,1009.51
2018-09-23T09:59:53.192Z,1009.54
2018-09-23T10:00:53.150Z,1009.50
2018-09-23T10:01:53.183Z,1009.51
2018-09-23T10:02:53.219Z,1009.50
2018-09-23T10:03:53.409Z,1009.51
2018-09-23T10:04:54.099Z,1009.47
2018-09-23T10:05:53.175Z,1009.45
2018-09-23T10:06:53.209Z,1009.40
2018-09-23T10:07:53.207Z,1009.31
2018-09-23T10:08:53.598Z,1009.30
2018-09-23T10:09:53.248Z,1009.24
2018-09-23T10:10:53.266Z,1009.16
2018-09-23T10:11:53.265Z,1009.06
2018-09-23T10:12:53.311Z,1009.06
2018-09-23T10:13:53.296Z,1008.98
2018-09-23T10:14:53.310Z,1008.94
2018-09-23T10:15:53.308Z,1008.99
2018-09-23T10:16:53.319Z,1008.98
2018-09-23T10:17:53.354Z,1008.97
2018-09-23T10:18:53.950Z,1008.89
2018-09-23T10:19:53.349Z,1008.86
2018-09-23T10:20:53.367Z,1008.83
2018-09-23T10:21:53.371Z,1008.83
2018-09-23T10:22:53.868Z,1008.77
2018-09-23T10:23:53.413Z,1008.80
2018-09-23T10:24:53.438Z,1008.78
2018-09-23T10:25:53.431Z,1008.84
2018-09-23T10:26:53.447Z,1008.81
2018-09-23T10:27:53.432Z,1008.78
2018-09-23T10:28:53.469Z,1008.75
2018-09-23T10:29:53.453Z,1008.68
2018-09-23T10:30:53.649Z,1008.61
2018-09-23T10:31:53.577Z,1008.61
2018-09-23T10:32:53.480Z,1008.58
2018-09-23T10:33:53.541Z,1008.58
2018-09-23T10:34:53.533Z,1008.58
2018-09-23T10:35:53.608Z,1008.59
2018-09-23T10:36:53.583Z,1008.61
2018-09-23T10:37:53.534Z,1008.60
2018-09-23T10:38:53.603Z,1008.56
2018-09-23T10:39:53.565Z,1008.58
2018-09-23T10:40:53.582Z,1008.56
2018-09-23T10:41:53.601Z,1008.57
2018-09-23T10:42:53.657Z,1008.59
2018-09-23T10:43:53.631Z,1008.62
2018-09-23T10:44:53.650Z,1008.59
2018-09-23T10:45:53.735Z,1008.57
2018-09-23T10:46:53.673Z,1008.50
2018-09-23T10:47:53.667Z,1008.48
2018-09-23T10:48:53.696Z,1008.37
2018-09-23T10:49:53.675Z,1008.29
2018-09-23T10:50:53.690Z,1008.13
2018-09-23T10:51:53.751Z,1008.00
2018-09-23T10:52:53.738Z,1007.95
2018-09-23T10:53:53.764Z,1007.92
2018-09-23T10:54:53.750Z,1007.93
2018-09-23T10:55:53.828Z,1007.96
2018-09-23T10:56:53.758Z,1007.96
2018-09-23T10:57:53.787Z,1007.92
2018-09-23T10:58:53.805Z,1007.91
2018-09-23T10:59:53.800Z,1007.98
2018-09-23T11:00:53.947Z,1008.02
2018-09-23T11:01:53.851Z,1008.03
2018-09-23T11:02:53.978Z,1008.10
2018-09-23T11:03:54.044Z,1008.14
2018-09-23T11:04:53.876Z,1008.16
2018-09-23T11:05:53.848Z,1008.10
2018-09-23T11:06:53.942Z,1008.08
2018-09-23T11:07:53.900Z,1008.03
2018-09-23T11:08:54.573Z,1008.05
2018-09-23T11:09:53.971Z,1008.05
2018-09-23T11:10:53.916Z,1008.09
2018-09-23T11:11:53.986Z,1008.04
2018-09-23T11:12:53.969Z,1007.98
2018-09-23T11:13:55.429Z,1007.91
2018-09-23T11:14:53.982Z,1007.86
2018-09-23T11:15:53.993Z,1007.84
2018-09-23T11:16:54.000Z,1007.85
2018-09-23T11:17:54.145Z,1007.86
2018-09-23T11:18:54.064Z,1007.89
2018-09-23T11:19:54.033Z,1007.91
2018-09-23T11:20:54.078Z,1007.91
2018-09-23T11:21:54.100Z,1007.89
2018-09-23T11:22:54.115Z,1007.88
2018-09-23T11:23:54.334Z,1007.85
2018-09-23T11:24:54.178Z,1007.82
2018-09-23T11:25:54.076Z,1007.78
2018-09-23T11:26:54.136Z,1007.71
2018-09-23T11:27:54.158Z,1007.68
2018-09-23T11:28:54.232Z,1007.58
2018-09-23T11:29:55.071Z,1007.62
2018-09-23T11:30:54.146Z,1007.60
2018-09-23T11:31:54.165Z,1007.57
2018-09-23T11:32:54.207Z,1007.52
2018-09-23T11:33:54.190Z,1007.48
2018-09-23T11:34:54.185Z,1007.46
2018-09-23T11:35:54.247Z,1007.40
2018-09-23T11:36:54.255Z,1007.37
2018-09-23T11:37:54.309Z,1007.33
2018-09-23T11:38:54.301Z,1007.31
2018-09-23T11:39:54.446Z,1007.30
2018-09-23T11:40:54.346Z,1007.29
2018-09-23T11:41:55.171Z,1007.29
2018-09-23T11:42:54.370Z,1007.35
2018-09-23T11:43:54.316Z,1007.30
2018-09-23T11:44:54.389Z,1007.30
2018-09-23T11:45:54.336Z,1007.27
2018-09-23T11:46:54.351Z,1007.22
2018-09-23T11:47:54.328Z,1007.13
2018-09-23T11:48:54.338Z,1007.11
2018-09-23T11:49:54.372Z,1007.15
2018-09-23T11:50:54.439Z,1007.20
2018-09-23T11:51:54.396Z,1007.20
2018-09-23T11:52:55.275Z,1007.17
2018-09-23T11:53:54.458Z,1007.22
2018-09-23T11:54:54.428Z,1007.21
2018-09-23T11:55:54.473Z,1007.18
2018-09-23T11:56:54.455Z,1007.16
2018-09-23T11:57:54.505Z,1007.13
2018-09-23T11:58:54.505Z,1007.14
2018-09-23T11:59:54.645Z,1007.08
2018-09-23T12:00:54.482Z,1007.03
2018-09-23T12:01:54.636Z,1006.97
2018-09-23T12:02:54.507Z,1006.93
2018-09-23T12:03:54.487Z,1006.89
2018-09-23T12:04:54.524Z,1006.88
2018-09-23T12:05:54.545Z,1006.81